»·PEaware :: N51254 KVNY-KSNA

N51254 :: KVNY-KSNA

FLIGHT INFORMATION

Flight Status: Arrived
Operator: Privately registered:
United States
More flights under this callsign
Pilot: Hasan B. (9605)
Aircraft: CESSNA 172 SKYHAWK
(C172)
More flights by this aircraft type
Origin: KVNY Van Nuys
United States
Destination: KSNA John Wayne-Orange Co
United States
More flights between these airports :: More routes between these airports
Route: +
File this flight plan on PilotEdge
Remarks:
Altitude:
(Current/Filed)
5,500ft
Speed:
(Current/Filed)
0kts
Departed: 08-Oct-18 12:29 PM
Arrived: 08-Oct-18 01:26 PM
Distance/Time
Traveled:
44nm/0:56
Distance/Time
To Go:
Arrived

Flight Plot

Page will automatically refresh every two minutes.


Map Options




Map Legend


Flown Route
Filed Route
Departure Airport
Arrival Airport
Navaid (VOR, NDB)
Fix

Horizontal Profiles

Position Reports

Time Latitude Longitude Heading Altitude Ground
Speed
08-Oct-18 12:25 34.219336 -118.494312 175 806ft 0kts
08-Oct-18 12:26 34.219336 -118.494312 175 806ft 0kts
08-Oct-18 12:27 34.219336 -118.494312 175 806ft 0kts
08-Oct-18 12:28 34.219058 -118.494289 171 806ft 5kts
08-Oct-18 12:29 34.218876 -118.493272 94 806ft 5kts
08-Oct-18 12:30 34.218711 -118.492285 83 806ft 0kts
08-Oct-18 12:31 34.216465 -118.491007 176 806ft 59kts
08-Oct-18 12:32 34.205135 -118.489359 171 1229ft 74kts
08-Oct-18 12:33 34.191963 -118.489108 170 1772ft 75kts
08-Oct-18 12:34 34.177841 -118.488393 185 2329ft 75kts
08-Oct-18 12:35 34.162923 -118.489694 184 2885ft 76kts
08-Oct-18 12:36 34.147997 -118.493203 191 3436ft 75kts
08-Oct-18 12:37 34.132547 -118.496896 192 3919ft 81kts
08-Oct-18 12:38 34.117300 -118.502480 198 4404ft 82kts
08-Oct-18 12:39 34.103544 -118.498553 194 4521ft 91kts
08-Oct-18 12:40 34.087178 -118.498763 172 4974ft 88kts
08-Oct-18 12:41 34.070792 -118.494053 162 5251ft 93kts
08-Oct-18 12:42 34.054954 -118.488086 166 5503ft 91kts
08-Oct-18 12:43 34.038070 -118.482417 157 5598ft 95kts
08-Oct-18 12:44 34.021616 -118.474626 158 5667ft 99kts
08-Oct-18 12:45 34.003727 -118.466656 160 5670ft 105kts
08-Oct-18 12:46 33.985034 -118.459023 162 5615ft 108kts
08-Oct-18 12:47 33.967011 -118.451384 153 5561ft 107kts
08-Oct-18 12:48 33.950265 -118.440929 152 5551ft 104kts
08-Oct-18 12:49 33.933385 -118.431153 155 5528ft 103kts
08-Oct-18 12:50 33.920490 -118.418260 140 5508ft 104kts
08-Oct-18 12:51 33.906891 -118.406019 147 5515ft 101kts
08-Oct-18 12:52 33.895417 -118.393518 127 5544ft 100kts
08-Oct-18 12:53 33.884210 -118.378248 140 5523ft 102kts
08-Oct-18 12:54 33.871570 -118.366089 138 5592ft 96kts
08-Oct-18 12:55 33.857769 -118.354219 151 5597ft 98kts
08-Oct-18 12:56 33.842575 -118.344011 143 5568ft 101kts
08-Oct-18 12:57 33.830017 -118.329356 133 5534ft 104kts
08-Oct-18 12:58 33.817803 -118.313970 144 5545ft 102kts
08-Oct-18 12:59 33.804701 -118.299828 133 5625ft 97kts
08-Oct-18 13:00 33.791100 -118.287029 147 5646ft 98kts
08-Oct-18 13:01 33.774971 -118.274775 153 5675ft 97kts
08-Oct-18 13:02 33.756006 -118.263894 155 5557ft 108kts
08-Oct-18 13:03 33.743479 -118.247623 110 5610ft 101kts
08-Oct-18 13:04 33.738979 -118.226914 106 5427ft 108kts
08-Oct-18 13:05 33.733972 -118.207306 106 5137ft 104kts
08-Oct-18 13:06 33.729109 -118.187246 108 4764ft 110kts
08-Oct-18 13:07 33.722831 -118.167960 115 4414ft 94kts
08-Oct-18 13:08 33.717661 -118.150616 90 4049ft 89kts
08-Oct-18 13:09 33.717974 -118.133799 90 3782ft 86kts
08-Oct-18 13:10 33.717097 -118.116135 96 3549ft 88kts
08-Oct-18 13:11 33.715474 -118.099177 97 3321ft 91kts
08-Oct-18 13:12 33.712983 -118.082300 104 3139ft 88kts
08-Oct-18 13:13 33.708187 -118.065511 105 2947ft 87kts
08-Oct-18 13:14 33.707028 -118.049756 79 2757ft 88kts
08-Oct-18 13:15 33.710171 -118.033246 74 2556ft 92kts
08-Oct-18 13:16 33.713646 -118.016920 75 2395ft 91kts
08-Oct-18 13:17 33.716988 -118.000896 77 2253ft 88kts
08-Oct-18 13:18 33.720039 -117.984907 77 2110ft 91kts
08-Oct-18 13:19 33.723065 -117.967201 77 2173ft 95kts
08-Oct-18 13:20 33.726648 -117.949532 83 2099ft 102kts
08-Oct-18 13:21 33.720043 -117.932707 118 1837ft 110kts
08-Oct-18 13:22 33.715143 -117.916412 106 1398ft 101kts
08-Oct-18 13:23 33.710964 -117.899982 107 1090ft 91kts
08-Oct-18 13:24 33.706440 -117.883741 110 810ft 94kts
08-Oct-18 13:25 33.701331 -117.868136 113 688ft 91kts
08-Oct-18 13:26 33.693176 -117.861848 172 539ft 67kts
08-Oct-18 13:27 33.683383 -117.863915 209 179ft 69kts
08-Oct-18 13:28 33.677769 -117.867840 307 60ft 6kts
08-Oct-18 13:29 33.678087 -117.868331 301 60ft 0kts
08-Oct-18 13:30 33.678087 -117.868331 301 60ft 0kts
08-Oct-18 13:31 33.677209 -117.869357 214 60ft 26kts

Navigation Log

Ident Type
1. KVNY Airport
2. KSNA Airport